Time;durP1;ratioP1;P1;durP2;ratioP2;P2;SDS_P1;SDS_P2;PMS_P1;PMS_P2;Temp;Humidity;BMP_temperature;BMP_pressure;BME280_temperature;BME280_humidity;BME280_pressure;Samples;Min_cycle;Max_cycle;Signal;HPM_P1;HPM_P2
2021/08/17 00:00:47;;;;;;;13.40;8.02;;;16.10;72.70;;;;;;1081971;54;20038;-68
2021/08/17 00:02:08;;;;;;;12.85;7.35;;;16.10;72.70;;;;;;1081824;54;20082;-68
2021/08/17 00:03:29;;;;;;;12.85;7.70;;;16.10;72.70;;;;;;1081945;47;20034;-68
2021/08/17 00:04:50;;;;;;;14.82;7.95;;;16.00;72.70;;;;;;1081956;47;20039;-68
2021/08/17 00:06:11;;;;;;;15.05;7.88;;;16.00;72.90;;;;;;1081976;54;20022;-68
2021/08/17 00:07:34;;;;;;;14.80;8.25;;;16.00;73.00;;;;;;1082171;54;20039;-68
2021/08/17 00:08:54;;;;;;;14.25;8.20;;;16.10;73.20;;;;;;1082146;54;20041;-68
2021/08/17 00:10:16;;;;;;;13.45;8.43;;;16.00;73.10;;;;;;1082294;54;20532;-68
2021/08/17 00:11:36;;;;;;;14.88;8.52;;;16.00;73.10;;;;;;1081800;54;20140;-68
2021/08/17 00:12:57;;;;;;;15.80;8.43;;;16.00;73.20;;;;;;1081673;54;20153;-68
2021/08/17 00:14:18;;;;;;;18.42;8.60;;;16.00;73.30;;;;;;1082104;54;20038;-68
2021/08/17 00:15:39;;;;;;;15.45;8.35;;;16.00;73.30;;;;;;1081985;54;20082;-68
2021/08/17 00:17:00;;;;;;;15.13;8.98;;;16.00;73.40;;;;;;1081773;54;20596;-68
2021/08/17 00:18:21;;;;;;;19.10;8.73;;;16.00;73.50;;;;;;1082087;54;20033;-67
2021/08/17 00:19:45;;;;;;;20.85;9.20;;;16.00;73.60;;;;;;1082203;54;20102;-68
2021/08/17 00:21:06;;;;;;;14.18;8.32;;;16.00;73.60;;;;;;1082070;54;20026;-68
2021/08/17 00:22:27;;;;;;;16.05;8.95;;;16.00;73.50;;;;;;1081897;54;20023;-68
2021/08/17 00:23:48;;;;;;;17.75;9.63;;;16.00;73.80;;;;;;1081896;54;20179;-68
2021/08/17 00:25:10;;;;;;;18.52;10.15;;;16.00;73.60;;;;;;1082098;54;20031;-68
2021/08/17 00:26:31;;;;;;;18.10;10.15;;;16.00;73.80;;;;;;1082133;54;20035;-68
2021/08/17 00:27:52;;;;;;;16.38;9.57;;;16.00;73.80;;;;;;1081572;54;20548;-68
2021/08/17 00:29:13;;;;;;;20.33;11.13;;;16.00;73.70;;;;;;1082292;39;20367;-68
2021/08/17 00:30:34;;;;;;;18.15;10.40;;;16.00;73.80;;;;;;1082243;54;20061;-68
2021/08/17 00:31:55;;;;;;;19.00;10.38;;;16.00;73.90;;;;;;1081619;54;20038;-68
2021/08/17 00:33:16;;;;;;;22.30;11.88;;;16.00;74.00;;;;;;1081772;54;20042;-68
2021/08/17 00:34:37;;;;;;;20.38;10.57;;;16.00;74.00;;;;;;1082032;54;20042;-68
2021/08/17 00:36:00;;;;;;;22.35;10.77;;;16.00;74.00;;;;;;1082250;54;20059;-68
2021/08/17 00:37:21;;;;;;;22.90;11.20;;;16.00;74.30;;;;;;1082068;54;20029;-68
2021/08/17 00:38:42;;;;;;;22.77;12.25;;;16.00;74.20;;;;;;1081684;54;20034;-68
2021/08/17 00:40:04;;;;;;;25.75;12.90;;;16.00;74.20;;;;;;1082171;54;20031;-68
2021/08/17 00:41:25;;;;;;;23.35;12.18;;;16.00;74.30;;;;;;1082111;54;20069;-68
2021/08/17 00:42:47;;;;;;;25.13;12.07;;;16.00;74.40;;;;;;1082596;39;20354;-68
2021/08/17 00:44:23;;;;;;;23.58;12.60;;;16.00;74.50;;;;;;1081746;54;20042;-68
2021/08/17 00:45:44;;;;;;;24.02;12.95;;;16.00;74.90;;;;;;1081496;47;20038;-68
2021/08/17 00:47:05;;;;;;;22.95;13.63;;;16.00;74.40;;;;;;1081864;54;20070;-68
2021/08/17 00:48:26;;;;;;;23.98;12.57;;;16.00;74.50;;;;;;1082370;54;20034;-68
2021/08/17 00:49:47;;;;;;;23.60;13.23;;;16.00;74.70;;;;;;1081606;54;20038;-68
2021/08/17 00:51:08;;;;;;;25.48;13.45;;;16.00;74.70;;;;;;1081583;54;20038;-68
2021/08/17 00:52:30;;;;;;;23.55;13.50;;;16.00;74.90;;;;;;1081967;54;20040;-68
2021/08/17 00:53:53;;;;;;;27.05;13.57;;;16.00;75.00;;;;;;1082377;54;20054;-68
2021/08/17 00:55:14;;;;;;;28.10;14.32;;;16.00;75.20;;;;;;1081972;54;20045;-68
2021/08/17 00:56:38;;;;;;;26.55;13.65;;;16.00;75.00;;;;;;1081951;54;20038;-68
2021/08/17 00:57:59;;;;;;;24.40;13.90;;;16.00;75.20;;;;;;1082362;54;20112;-70
2021/08/17 00:59:20;;;;;;;24.42;13.30;;;16.00;75.10;;;;;;1082621;54;20078;-69
2021/08/17 01:00:41;;;;;;;26.15;14.52;;;16.00;75.20;;;;;;1082049;54;20034;-68
2021/08/17 01:02:03;;;;;;;29.98;16.10;;;16.00;75.30;;;;;;1081967;54;20041;-68
2021/08/17 01:03:26;;;;;;;28.17;15.02;;;16.00;75.20;;;;;;1081982;54;20045;-68
2021/08/17 01:04:47;;;;;;;26.30;14.23;;;16.00;75.30;;;;;;1082031;54;20034;-67
2021/08/17 01:06:08;;;;;;;28.85;14.68;;;16.00;75.20;;;;;;1081741;47;20042;-68
2021/08/17 01:07:30;;;;;;;30.08;14.98;;;16.10;75.40;;;;;;1081498;54;20172;-68
2021/08/17 01:08:50;;;;;;;27.02;14.23;;;16.00;75.20;;;;;;1081781;54;20038;-68
2021/08/17 01:10:12;;;;;;;29.70;15.45;;;16.10;75.40;;;;;;1081947;54;20066;-68
2021/08/17 01:11:33;;;;;;;29.60;16.60;;;16.10;75.60;;;;;;1081757;54;20073;-68
2021/08/17 01:12:54;;;;;;;28.05;15.25;;;16.10;75.60;;;;;;1081903;54;20034;-68
2021/08/17 01:14:20;;;;;;;26.48;14.85;;;16.00;75.50;;;;;;1082370;54;20030;-68
2021/08/17 01:15:41;;;;;;;27.75;15.52;;;16.10;75.90;;;;;;1082533;54;20046;-68
2021/08/17 01:17:02;;;;;;;30.27;14.45;;;16.10;75.70;;;;;;1082104;54;20038;-68
2021/08/17 01:18:23;;;;;;;28.52;15.38;;;16.10;75.60;;;;;;1082196;54;20035;-68
2021/08/17 01:19:45;;;;;;;27.70;15.13;;;16.10;75.60;;;;;;1082746;39;20715;-68
2021/08/17 01:21:08;;;;;;;31.70;16.20;;;16.10;75.60;;;;;;1082233;54;20038;-67
2021/08/17 01:22:29;;;;;;;33.10;17.10;;;16.10;75.60;;;;;;1082016;54;20044;-67
2021/08/17 01:23:50;;;;;;;28.52;15.75;;;16.10;75.50;;;;;;1082138;54;20037;-68
2021/08/17 01:25:12;;;;;;;31.75;16.52;;;16.10;75.60;;;;;;1082483;54;20037;-68
2021/08/17 01:26:33;;;;;;;29.33;15.60;;;16.10;75.60;;;;;;1082403;54;20034;-67
2021/08/17 01:27:54;;;;;;;31.00;15.88;;;16.10;75.60;;;;;;1082105;54;20038;-68
2021/08/17 01:29:16;;;;;;;28.02;15.02;;;16.10;75.40;;;;;;1081928;54;20030;-68
2021/08/17 01:30:37;;;;;;;30.35;16.02;;;16.10;75.50;;;;;;1082431;54;20035;-68
2021/08/17 01:31:58;;;;;;;34.55;16.38;;;16.10;75.50;;;;;;1082329;54;20042;-68
2021/08/17 01:33:19;;;;;;;31.98;16.25;;;16.10;75.60;;;;;;1081756;54;20035;-68
2021/08/17 01:34:39;;;;;;;33.25;17.23;;;16.10;75.60;;;;;;1081912;54;20058;-68
2021/08/17 01:36:01;;;;;;;29.83;16.27;;;16.10;75.60;;;;;;1082314;54;20051;-68
2021/08/17 01:37:21;;;;;;;31.60;16.00;;;16.10;75.70;;;;;;1082584;54;20055;-68
2021/08/17 01:38:50;;;;;;;35.97;17.50;;;16.10;75.70;;;;;;1082432;54;20057;-68
2021/08/17 01:40:12;;;;;;;33.75;16.15;;;16.10;76.20;;;;;;1081895;54;20065;-68
2021/08/17 01:41:33;;;;;;;33.63;16.83;;;16.00;75.60;;;;;;1082073;54;20042;-65
2021/08/17 01:42:54;;;;;;;28.98;15.85;;;16.00;75.60;;;;;;1082272;54;20045;-65
2021/08/17 01:44:15;;;;;;;31.20;16.40;;;16.00;75.60;;;;;;1082259;54;20661;-66
2021/08/17 01:45:36;;;;;;;31.60;17.33;;;16.00;75.50;;;;;;1081824;54;20129;-66
2021/08/17 01:46:57;;;;;;;28.60;16.63;;;16.00;75.40;;;;;;1082136;54;20039;-65
2021/08/17 01:48:18;;;;;;;30.92;16.77;;;16.00;75.60;;;;;;1082772;39;20726;-65
2021/08/17 01:49:40;;;;;;;39.53;17.75;;;16.00;75.70;;;;;;1082249;54;20033;-65
2021/08/17 01:51:01;;;;;;;34.60;16.83;;;16.00;75.90;;;;;;1082017;54;20043;-65
2021/08/17 01:52:22;;;;;;;36.20;17.50;;;16.00;76.60;;;;;;1082680;54;20049;-65
2021/08/17 01:53:43;;;;;;;33.47;17.23;;;16.00;75.80;;;;;;1083034;39;20424;-66
2021/08/17 01:55:04;;;;;;;34.65;17.27;;;16.00;75.80;;;;;;1081994;54;20030;-66
2021/08/17 01:56:25;;;;;;;34.17;17.88;;;16.00;75.90;;;;;;1081961;54;20045;-65
2021/08/17 01:57:46;;;;;;;32.03;16.40;;;16.00;76.00;;;;;;1082185;54;20038;-65
2021/08/17 01:59:07;;;;;;;34.03;17.30;;;16.00;75.90;;;;;;1082430;54;20041;-65
2021/08/17 02:00:28;;;;;;;35.28;18.05;;;16.00;76.00;;;;;;1081475;54;20077;-65
2021/08/17 02:01:49;;;;;;;36.60;17.75;;;16.00;76.20;;;;;;1081861;54;20046;-65
2021/08/17 02:03:10;;;;;;;32.65;17.65;;;16.00;76.20;;;;;;1082379;54;20054;-66
2021/08/17 02:04:31;;;;;;;32.35;17.50;;;16.00;76.20;;;;;;1082525;54;20520;-65
2021/08/17 02:05:52;;;;;;;31.73;16.90;;;16.00;76.20;;;;;;1082282;54;20026;-65
2021/08/17 02:07:12;;;;;;;37.60;17.95;;;15.90;76.30;;;;;;1081762;54;20070;-65
2021/08/17 02:08:33;;;;;;;30.63;16.55;;;15.90;76.10;;;;;;1082263;54;20022;-65
2021/08/17 02:09:54;;;;;;;31.75;17.48;;;16.00;76.20;;;;;;1082422;54;20022;-65
2021/08/17 02:11:15;;;;;;;32.38;16.85;;;15.90;76.10;;;;;;1082104;54;20134;-65
2021/08/17 02:12:36;;;;;;;31.20;16.35;;;16.00;76.30;;;;;;1082107;54;20042;-65
2021/08/17 02:13:57;;;;;;;33.33;16.92;;;15.90;76.20;;;;;;1082346;54;20035;-66
2021/08/17 02:15:18;;;;;;;33.47;17.55;;;15.90;76.20;;;;;;1082185;54;20528;-66
2021/08/17 02:16:39;;;;;;;35.28;16.73;;;15.90;76.10;;;;;;1082104;54;20084;-66
2021/08/17 02:18:00;;;;;;;33.90;17.90;;;16.00;76.20;;;;;;1081959;54;20034;-66
2021/08/17 02:19:21;;;;;;;31.92;16.73;;;15.90;76.10;;;;;;1082364;54;20023;-65
2021/08/17 02:20:42;;;;;;;33.30;16.98;;;15.90;76.10;;;;;;1082335;54;20162;-65
2021/08/17 02:22:02;;;;;;;31.30;17.45;;;16.00;76.30;;;;;;1082139;54;20039;-65
2021/08/17 02:23:24;;;;;;;32.40;16.60;;;16.00;76.40;;;;;;1082029;54;20029;-65
2021/08/17 02:24:45;;;;;;;29.80;16.65;;;16.00;76.40;;;;;;1082298;54;20133;-66
2021/08/17 02:26:06;;;;;;;33.75;16.75;;;15.90;76.30;;;;;;1082210;54;20029;-65
2021/08/17 02:27:31;;;;;;;31.15;17.65;;;15.90;76.40;;;;;;1082235;54;20042;-66
2021/08/17 02:28:52;;;;;;;30.05;16.23;;;15.90;76.40;;;;;;1082047;54;20161;-66
2021/08/17 02:30:13;;;;;;;27.77;15.55;;;15.90;76.40;;;;;;1082389;54;20042;-66
2021/08/17 02:31:34;;;;;;;31.85;17.10;;;15.90;76.50;;;;;;1082125;54;20086;-65
2021/08/17 02:32:55;;;;;;;32.85;17.13;;;15.90;76.50;;;;;;1081993;54;20056;-65
2021/08/17 02:34:15;;;;;;;30.33;15.93;;;15.90;76.40;;;;;;1081944;54;20942;-65
2021/08/17 02:35:36;;;;;;;34.08;18.23;;;15.90;76.50;;;;;;1082093;54;20038;-65
2021/08/17 02:36:57;;;;;;;34.17;16.55;;;15.90;76.50;;;;;;1082325;54;20057;-65
2021/08/17 02:38:18;;;;;;;31.75;16.70;;;15.90;76.50;;;;;;1082292;54;20030;-65
2021/08/17 02:39:39;;;;;;;34.28;17.77;;;15.90;76.60;;;;;;1082115;54;20034;-65
2021/08/17 02:41:00;;;;;;;34.72;17.67;;;15.90;76.60;;;;;;1082628;54;20037;-66
2021/08/17 02:42:21;;;;;;;31.95;16.75;;;15.90;76.40;;;;;;1082279;54;20031;-66
2021/08/17 02:43:42;;;;;;;29.17;16.42;;;15.90;76.60;;;;;;1082036;54;20037;-66
2021/08/17 02:45:03;;;;;;;31.23;17.08;;;15.90;76.50;;;;;;1082306;54;20043;-66
2021/08/17 02:46:24;;;;;;;32.20;17.60;;;15.90;76.50;;;;;;1081831;54;20045;-65
2021/08/17 02:47:45;;;;;;;32.88;17.15;;;15.90;76.50;;;;;;1082391;54;20510;-66
2021/08/17 02:49:06;;;;;;;31.17;16.85;;;15.90;76.60;;;;;;1082053;54;20041;-65
2021/08/17 02:50:28;;;;;;;31.08;17.20;;;15.90;76.60;;;;;;1082192;54;20041;-65
2021/08/17 02:51:49;;;;;;;32.88;16.67;;;15.90;76.70;;;;;;1082277;54;20086;-66
2021/08/17 02:53:10;;;;;;;31.25;16.15;;;15.90;77.30;;;;;;1081754;54;20042;-66
2021/08/17 02:54:33;;;;;;;30.50;16.50;;;15.90;76.70;;;;;;1081967;54;20035;-66
2021/08/17 02:55:53;;;;;;;33.00;16.02;;;15.90;76.70;;;;;;1082051;54;20022;-65
2021/08/17 02:57:14;;;;;;;28.83;15.82;;;15.90;76.60;;;;;;1082349;39;20363;-66
2021/08/17 02:58:36;;;;;;;31.63;16.27;;;15.90;76.60;;;;;;1082740;39;20412;-66
2021/08/17 02:59:57;;;;;;;33.10;16.88;;;15.90;76.80;;;;;;1082031;54;20034;-67
2021/08/17 03:01:18;;;;;;;34.75;16.70;;;15.90;76.80;;;;;;1082021;54;20035;-67
2021/08/17 03:02:39;;;;;;;31.63;16.55;;;15.80;76.70;;;;;;1082404;54;20034;-66
2021/08/17 03:03:59;;;;;;;33.47;17.77;;;15.90;76.90;;;;;;1082342;54;20834;-66
2021/08/17 03:05:20;;;;;;;34.15;16.95;;;15.90;77.00;;;;;;1082028;54;20036;-65
2021/08/17 03:06:41;;;;;;;29.67;16.13;;;15.80;76.90;;;;;;1082161;54;20034;-66
2021/08/17 03:08:05;;;;;;;29.83;16.50;;;15.80;76.90;;;;;;1082274;54;20482;-65
2021/08/17 03:09:26;;;;;;;29.05;16.08;;;15.90;77.20;;;;;;1081757;54;20110;-65
2021/08/17 03:10:47;;;;;;;32.58;16.00;;;15.90;77.20;;;;;;1082256;39;20381;-65
2021/08/17 03:12:08;;;;;;;29.92;16.73;;;15.90;77.10;;;;;;1082103;54;20039;-66
2021/08/17 03:13:29;;;;;;;31.65;16.23;;;15.90;77.10;;;;;;1082271;54;20034;-66
2021/08/17 03:14:50;;;;;;;31.25;15.95;;;15.90;77.10;;;;;;1081887;54;20602;-65
2021/08/17 03:16:11;;;;;;;31.02;15.45;;;15.90;77.20;;;;;;1081653;54;20063;-65
2021/08/17 03:17:33;;;;;;;30.77;16.92;;;15.90;77.30;;;;;;1081903;47;20122;-66
2021/08/17 03:18:54;;;;;;;33.97;16.58;;;15.90;77.20;;;;;;1082213;54;20030;-66
2021/08/17 03:20:16;;;;;;;30.83;15.75;;;15.80;77.10;;;;;;1082639;39;20382;-65
2021/08/17 03:21:37;;;;;;;32.15;16.63;;;15.90;77.20;;;;;;1081938;54;20034;-66
2021/08/17 03:22:58;;;;;;;28.77;15.43;;;15.90;77.20;;;;;;1081908;54;20042;-66
2021/08/17 03:24:19;;;;;;;31.98;15.80;;;15.90;77.20;;;;;;1082687;54;20070;-66
2021/08/17 03:25:41;;;;;;;32.70;17.17;;;15.90;77.30;;;;;;1082028;54;20045;-65
2021/08/17 03:27:02;;;;;;;31.67;16.75;;;15.90;77.20;;;;;;1081647;54;20091;-65
2021/08/17 03:28:23;;;;;;;31.17;15.70;;;15.90;77.10;;;;;;1082053;54;20034;-65
2021/08/17 03:29:44;;;;;;;35.58;16.17;;;15.90;77.20;;;;;;1082476;54;20031;-66
2021/08/17 03:31:05;;;;;;;30.63;16.05;;;15.90;77.20;;;;;;1081947;54;20041;-65
2021/08/17 03:32:26;;;;;;;29.60;15.75;;;15.90;77.20;;;;;;1082067;54;20034;-65
2021/08/17 03:33:47;;;;;;;31.00;16.00;;;15.90;77.20;;;;;;1082100;54;20536;-65
2021/08/17 03:35:09;;;;;;;28.08;15.35;;;15.90;77.30;;;;;;1082652;39;20367;-65
2021/08/17 03:36:30;;;;;;;28.98;17.00;;;15.90;77.40;;;;;;1081719;54;20038;-65
2021/08/17 03:37:51;;;;;;;28.92;14.88;;;15.90;77.40;;;;;;1082294;54;20038;-66
2021/08/17 03:39:12;;;;;;;35.22;16.10;;;15.90;77.50;;;;;;1082383;39;20298;-65
2021/08/17 03:40:33;;;;;;;30.45;15.75;;;15.90;77.50;;;;;;1082319;54;20038;-65
2021/08/17 03:41:54;;;;;;;33.28;16.90;;;15.90;77.40;;;;;;1081865;54;20042;-65
2021/08/17 03:43:15;;;;;;;31.75;16.13;;;15.80;77.50;;;;;;1081861;54;20057;-65
2021/08/17 03:44:36;;;;;;;31.70;16.33;;;15.90;77.60;;;;;;1082344;54;20034;-65
2021/08/17 03:45:57;;;;;;;29.42;16.30;;;15.90;77.60;;;;;;1081859;54;20049;-66
2021/08/17 03:47:18;;;;;;;28.98;15.77;;;15.90;77.60;;;;;;1082344;39;20419;-65
2021/08/17 03:48:39;;;;;;;30.83;16.00;;;15.90;77.60;;;;;;1082006;54;20041;-65
2021/08/17 03:50:00;;;;;;;31.55;15.32;;;15.90;77.60;;;;;;1082273;54;20038;-66
2021/08/17 03:51:21;;;;;;;28.27;14.85;;;15.90;77.70;;;;;;1082059;47;20027;-65
2021/08/17 03:52:42;;;;;;;30.63;15.80;;;15.90;77.70;;;;;;1082034;54;20652;-65
2021/08/17 03:54:03;;;;;;;30.27;15.93;;;15.90;77.90;;;;;;1082205;39;20294;-66
2021/08/17 03:55:24;;;;;;;33.17;16.30;;;15.90;77.90;;;;;;1082648;54;20076;-66
2021/08/17 03:56:45;;;;;;;29.23;15.43;;;15.90;77.80;;;;;;1082897;47;20038;-66
2021/08/17 03:58:06;;;;;;;29.98;15.32;;;15.90;77.80;;;;;;1082839;54;20084;-66
2021/08/17 03:59:27;;;;;;;31.05;16.33;;;15.90;77.90;;;;;;1082746;54;20035;-66
2021/08/17 04:00:49;;;;;;;29.45;16.00;;;16.00;77.90;;;;;;1081998;54;20045;-65
2021/08/17 04:02:10;;;;;;;33.25;15.38;;;16.00;78.50;;;;;;1082146;54;20129;-65
2021/08/17 04:03:31;;;;;;;28.40;16.42;;;16.00;77.90;;;;;;1081760;54;20035;-65
2021/08/17 04:04:52;;;;;;;31.17;15.95;;;16.00;77.90;;;;;;1081999;54;20034;-66
2021/08/17 04:06:13;;;;;;;28.42;15.32;;;16.00;77.80;;;;;;1082304;54;20038;-65
2021/08/17 04:07:34;;;;;;;30.73;15.88;;;16.00;77.80;;;;;;1082117;54;20041;-65
2021/08/17 04:08:55;;;;;;;29.92;15.70;;;16.00;77.70;;;;;;1081396;54;20028;-65
2021/08/17 04:10:16;;;;;;;27.90;15.20;;;16.00;77.70;;;;;;1082177;54;20273;-65
2021/08/17 04:11:37;;;;;;;30.90;16.35;;;16.00;77.70;;;;;;1082274;54;20038;-65
2021/08/17 04:12:58;;;;;;;26.15;14.55;;;16.00;77.80;;;;;;1081998;54;20083;-66
2021/08/17 04:14:18;;;;;;;29.20;15.55;;;16.00;77.70;;;;;;1082180;54;20042;-65
2021/08/17 04:15:39;;;;;;;29.42;15.85;;;16.00;77.60;;;;;;1081632;54;20046;-65
2021/08/17 04:17:00;;;;;;;28.98;15.52;;;16.00;77.70;;;;;;1082279;54;20588;-65
2021/08/17 04:18:21;;;;;;;30.63;15.90;;;16.00;77.70;;;;;;1082209;54;20067;-65
2021/08/17 04:19:43;;;;;;;30.67;16.35;;;16.00;77.70;;;;;;1082097;54;20031;-65
2021/08/17 04:21:07;;;;;;;28.95;15.38;;;16.00;77.60;;;;;;1082452;39;20379;-65
2021/08/17 04:22:28;;;;;;;30.85;16.10;;;16.00;77.60;;;;;;1082447;39;20413;-65
2021/08/17 04:23:49;;;;;;;31.00;16.20;;;16.00;77.60;;;;;;1081865;54;20062;-66
2021/08/17 04:25:10;;;;;;;27.92;15.00;;;16.00;77.60;;;;;;1081872;54;20041;-65
2021/08/17 04:26:31;;;;;;;31.58;15.88;;;16.00;77.70;;;;;;1081998;54;20062;-65
2021/08/17 04:27:52;;;;;;;29.40;15.20;;;16.00;77.60;;;;;;1082397;54;20086;-65
2021/08/17 04:29:13;;;;;;;35.50;17.20;;;16.00;77.60;;;;;;1082172;54;20030;-66
2021/08/17 04:30:34;;;;;;;30.55;16.42;;;16.00;77.60;;;;;;1081641;54;20030;-65
2021/08/17 04:31:55;;;;;;;31.38;16.13;;;16.00;77.60;;;;;;1081856;54;20038;-65
2021/08/17 04:33:16;;;;;;;34.38;17.17;;;16.00;77.40;;;;;;1081915;54;21155;-65
2021/08/17 04:34:40;;;;;;;28.08;14.82;;;16.00;77.50;;;;;;1082591;46;20054;-65
2021/08/17 04:36:01;;;;;;;28.60;16.20;;;16.00;77.60;;;;;;1081826;54;20125;-65
2021/08/17 04:37:22;;;;;;;28.15;15.57;;;16.00;77.70;;;;;;1081904;54;20600;-66
2021/08/17 04:38:43;;;;;;;28.80;15.38;;;16.00;77.70;;;;;;1082062;54;20046;-65
2021/08/17 04:40:04;;;;;;;31.13;16.75;;;16.00;77.80;;;;;;1081939;54;20034;-65
2021/08/17 04:41:25;;;;;;;33.33;15.95;;;16.00;77.80;;;;;;1081335;54;20038;-65
2021/08/17 04:42:46;;;;;;;28.00;14.55;;;16.00;77.80;;;;;;1081240;54;20034;-66
2021/08/17 04:44:07;;;;;;;31.98;16.38;;;16.00;77.80;;;;;;1081860;39;20442;-65
2021/08/17 04:45:28;;;;;;;31.38;16.60;;;16.10;77.80;;;;;;1081508;47;20046;-65
2021/08/17 04:46:49;;;;;;;30.42;15.40;;;16.00;77.80;;;;;;1081027;54;20069;-65
2021/08/17 04:48:10;;;;;;;28.80;14.80;;;16.10;77.80;;;;;;1081937;39;20485;-66
2021/08/17 04:49:31;;;;;;;33.22;15.38;;;16.10;77.80;;;;;;1081851;54;20050;-65
2021/08/17 04:50:52;;;;;;;31.80;15.43;;;16.10;77.80;;;;;;1081700;54;20034;-65
2021/08/17 04:52:13;;;;;;;32.20;16.42;;;16.10;77.80;;;;;;1079697;54;20034;-65
2021/08/17 04:53:34;;;;;;;28.50;15.48;;;16.10;77.80;;;;;;1079048;54;20119;-65
2021/08/17 04:54:55;;;;;;;28.75;14.75;;;16.10;77.80;;;;;;1080573;54;20037;-65
2021/08/17 04:56:16;;;;;;;24.40;14.00;;;16.10;77.80;;;;;;1080370;54;20117;-65
2021/08/17 04:57:52;;;;;;;26.00;14.18;;;16.10;77.90;;;;;;1080902;54;20042;-65
2021/08/17 04:59:12;;;;;;;28.33;14.88;;;16.10;78.30;;;;;;1080585;54;20050;-65
2021/08/17 05:00:33;;;;;;;27.98;14.40;;;16.10;77.90;;;;;;1080488;54;20029;-65
2021/08/17 05:01:54;;;;;;;32.60;14.23;;;16.10;77.90;;;;;;1081657;54;20114;-65
2021/08/17 05:03:15;;;;;;;33.10;16.02;;;16.10;78.00;;;;;;1081051;54;20034;-65
2021/08/17 05:04:36;;;;;;;30.08;15.80;;;16.10;78.00;;;;;;1080049;47;20478;-65
2021/08/17 05:05:57;;;;;;;26.55;14.52;;;16.20;78.20;;;;;;1080871;54;20022;-66
2021/08/17 05:07:18;;;;;;;29.00;15.98;;;16.20;78.20;;;;;;1081172;54;20122;-66
2021/08/17 05:08:39;;;;;;;28.48;15.20;;;16.20;78.20;;;;;;1080600;54;20061;-65
2021/08/17 05:09:59;;;;;;;28.98;14.88;;;16.20;78.10;;;;;;1081359;54;20030;-66
2021/08/17 05:11:20;;;;;;;33.40;15.52;;;16.20;78.20;;;;;;1080920;54;20038;-65
2021/08/17 05:12:42;;;;;;;35.75;16.63;;;16.30;78.20;;;;;;1081336;54;20057;-66
2021/08/17 05:14:03;;;;;;;27.42;15.30;;;16.30;78.20;;;;;;1080476;54;20026;-66
2021/08/17 05:15:24;;;;;;;33.28;16.50;;;16.30;78.10;;;;;;1081406;39;20454;-64
2021/08/17 05:16:45;;;;;;;29.88;15.60;;;16.30;78.00;;;;;;1081053;54;20046;-66
2021/08/17 05:18:06;;;;;;;30.42;15.93;;;16.30;78.00;;;;;;1079108;54;20035;-66
2021/08/17 05:19:27;;;;;;;31.05;14.60;;;16.30;77.90;;;;;;1080226;54;20034;-66
2021/08/17 05:20:48;;;;;;;28.80;16.35;;;16.30;77.90;;;;;;1080444;54;20042;-66
2021/08/17 05:22:09;;;;;;;26.90;15.32;;;16.40;78.00;;;;;;1081464;31;20484;-65
2021/08/17 05:23:30;;;;;;;33.08;16.27;;;16.40;78.10;;;;;;1081176;54;20027;-65
2021/08/17 05:24:51;;;;;;;31.50;17.33;;;16.40;78.10;;;;;;1081557;54;20022;-65
2021/08/17 05:26:12;;;;;;;27.30;14.90;;;16.40;78.00;;;;;;1080727;54;20030;-66
2021/08/17 05:27:33;;;;;;;27.33;14.85;;;16.40;78.00;;;;;;1080296;39;20265;-66
2021/08/17 05:28:53;;;;;;;27.65;15.85;;;16.40;78.10;;;;;;1080420;39;20118;-65
2021/08/17 05:30:15;;;;;;;31.10;15.80;;;16.40;78.10;;;;;;1081456;54;20035;-65
2021/08/17 05:31:36;;;;;;;33.65;16.33;;;16.50;78.20;;;;;;1079777;54;20041;-66
2021/08/17 05:32:57;;;;;;;28.58;15.63;;;16.50;78.20;;;;;;1080998;54;20045;-66
2021/08/17 05:34:18;;;;;;;29.15;16.25;;;16.50;78.20;;;;;;1080829;48;20042;-66
2021/08/17 05:35:40;;;;;;;30.42;15.80;;;16.50;78.20;;;;;;1081620;47;20587;-65
2021/08/17 05:37:02;;;;;;;33.25;16.30;;;16.50;78.20;;;;;;1080710;54;20043;-65
2021/08/17 05:38:23;;;;;;;30.42;15.88;;;16.50;78.30;;;;;;1079732;54;20046;-65
2021/08/17 05:39:44;;;;;;;29.17;15.30;;;16.60;78.30;;;;;;1080151;54;20038;-65
2021/08/17 05:41:05;;;;;;;31.92;15.57;;;16.60;78.20;;;;;;1080878;47;20057;-65
2021/08/17 05:42:26;;;;;;;30.92;16.02;;;16.60;78.20;;;;;;1080908;54;20046;-66
2021/08/17 05:43:47;;;;;;;32.30;16.83;;;16.60;78.20;;;;;;1080869;54;20034;-66
2021/08/17 05:45:09;;;;;;;30.13;16.00;;;16.70;78.10;;;;;;1079694;54;20035;-66
2021/08/17 05:46:30;;;;;;;32.03;16.55;;;16.70;78.10;;;;;;1080772;54;20039;-65
2021/08/17 05:47:51;;;;;;;38.33;18.48;;;16.70;78.20;;;;;;1080606;54;20087;-65
2021/08/17 05:49:12;;;;;;;29.90;16.05;;;16.70;78.10;;;;;;1080305;54;20060;-66
2021/08/17 05:50:33;;;;;;;32.13;16.88;;;16.70;78.10;;;;;;1080463;54;20553;-66
2021/08/17 05:51:54;;;;;;;32.28;16.08;;;16.70;78.20;;;;;;1079992;39;20193;-65
2021/08/17 05:53:14;;;;;;;32.78;16.77;;;16.80;78.20;;;;;;1080612;54;20130;-66
2021/08/17 05:54:36;;;;;;;33.50;17.40;;;16.80;78.20;;;;;;1081630;54;20031;-66
2021/08/17 05:55:57;;;;;;;34.92;16.95;;;16.80;78.20;;;;;;1081148;39;20394;-65
2021/08/17 05:57:19;;;;;;;33.63;16.30;;;16.80;78.10;;;;;;1080204;54;20045;-66
2021/08/17 05:58:39;;;;;;;29.65;15.35;;;16.90;78.10;;;;;;1081332;54;20038;-66
2021/08/17 06:00:01;;;;;;;29.33;15.00;;;16.90;78.10;;;;;;1081325;54;20042;-66
2021/08/17 06:01:22;;;;;;;34.65;17.35;;;16.90;78.10;;;;;;1080559;54;20126;-66
2021/08/17 06:02:42;;;;;;;31.30;16.52;;;16.90;78.00;;;;;;1080268;54;20045;-63
2021/08/17 06:04:03;;;;;;;31.17;15.98;;;16.90;78.10;;;;;;1081585;47;20039;-66
2021/08/17 06:05:26;;;;;;;35.33;16.23;;;17.00;78.20;;;;;;1080700;54;20045;-67
2021/08/17 06:06:47;;;;;;;29.48;16.42;;;17.00;78.10;;;;;;1081303;54;20060;-64
2021/08/17 06:08:08;;;;;;;34.28;18.50;;;17.00;78.10;;;;;;1081299;54;20065;-64
2021/08/17 06:09:29;;;;;;;34.78;17.60;;;17.00;78.00;;;;;;1081447;54;20153;-64
2021/08/17 06:10:50;;;;;;;30.75;16.83;;;17.10;78.10;;;;;;1082127;47;20034;-66
2021/08/17 06:12:11;;;;;;;32.85;16.00;;;17.10;78.10;;;;;;1080683;54;20038;-64
2021/08/17 06:13:32;;;;;;;33.22;16.10;;;17.10;78.10;;;;;;1080554;54;20027;-64
2021/08/17 06:14:53;;;;;;;30.50;16.70;;;17.10;78.20;;;;;;1081965;54;20034;-64
2021/08/17 06:16:14;;;;;;;30.05;16.02;;;17.10;78.40;;;;;;1081189;54;20096;-65
2021/08/17 06:17:35;;;;;;;31.92;16.70;;;17.20;78.30;;;;;;1082399;54;20037;-64
2021/08/17 06:18:56;;;;;;;30.33;16.08;;;17.20;78.30;;;;;;1081937;47;20086;-64
2021/08/17 06:20:17;;;;;;;32.55;17.40;;;17.30;78.30;;;;;;1081925;54;20033;-65
2021/08/17 06:21:38;;;;;;;30.55;16.60;;;17.30;78.20;;;;;;1081259;54;20537;-64
2021/08/17 06:22:59;;;;;;;35.25;16.67;;;17.30;78.10;;;;;;1081961;54;20138;-64
2021/08/17 06:24:20;;;;;;;31.77;16.20;;;17.30;78.00;;;;;;1081634;54;20042;-67
2021/08/17 06:25:42;;;;;;;27.63;15.45;;;17.40;78.20;;;;;;1081983;54;20039;-64
2021/08/17 06:27:03;;;;;;;29.45;15.88;;;17.40;78.20;;;;;;1081979;54;20022;-65
2021/08/17 06:28:25;;;;;;;31.13;15.25;;;17.40;78.20;;;;;;1082476;54;20030;-64
2021/08/17 06:29:45;;;;;;;31.85;16.02;;;17.50;78.20;;;;;;1081931;54;20063;-64
2021/08/17 06:31:07;;;;;;;31.17;16.40;;;17.50;78.30;;;;;;1081331;54;20037;-67
2021/08/17 06:32:28;;;;;;;31.58;15.95;;;17.50;78.10;;;;;;1081657;54;20054;-64
2021/08/17 06:33:50;;;;;;;29.65;17.52;;;17.60;78.10;;;;;;1081960;39;20358;-65
2021/08/17 06:35:12;;;;;;;32.33;16.15;;;17.60;78.10;;;;;;1081175;54;20611;-64
2021/08/17 06:36:35;;;;;;;31.83;16.50;;;17.60;78.00;;;;;;1080886;54;20149;-64
2021/08/17 06:37:56;;;;;;;30.63;15.88;;;17.70;78.00;;;;;;1081758;54;20034;-66
2021/08/17 06:39:20;;;;;;;30.23;16.25;;;17.70;77.80;;;;;;1081699;54;20035;-64
2021/08/17 06:40:41;;;;;;;29.38;16.00;;;17.80;77.70;;;;;;1082095;54;20034;-66
2021/08/17 06:42:02;;;;;;;32.00;15.50;;;17.80;77.70;;;;;;1080525;54;20062;-66
2021/08/17 06:43:23;;;;;;;33.30;15.90;;;17.80;77.50;;;;;;1080836;54;20042;-66
2021/08/17 06:44:44;;;;;;;33.28;16.95;;;17.80;77.30;;;;;;1080921;47;20034;-66
2021/08/17 06:46:05;;;;;;;30.15;16.55;;;17.90;77.20;;;;;;1080581;54;20067;-66
2021/08/17 06:47:26;;;;;;;26.95;14.57;;;17.90;77.10;;;;;;1080429;54;20062;-66
2021/08/17 06:48:47;;;;;;;30.52;16.17;;;17.90;76.90;;;;;;1080494;54;20034;-66
2021/08/17 06:50:08;;;;;;;30.08;16.23;;;18.00;76.90;;;;;;1081380;54;20022;-64
2021/08/17 06:51:29;;;;;;;28.80;15.65;;;18.00;76.90;;;;;;1081485;54;20058;-65
2021/08/17 06:52:50;;;;;;;31.63;16.10;;;18.00;76.90;;;;;;1080171;54;20042;-66